sensor_id;sensor_type;location;lat;lon;timestamp;temperature;humidity
71563;DHT22;59391;52.504;13.438;2023-03-21T00:01:55;12.00;52.20
71563;DHT22;59391;52.504;13.438;2023-03-21T00:04:23;12.00;52.30
71563;DHT22;59391;52.504;13.438;2023-03-21T00:06:50;12.00;52.30
71563;DHT22;59391;52.504;13.438;2023-03-21T00:09:16;11.90;52.30
71563;DHT22;59391;52.504;13.438;2023-03-21T00:11:42;11.90;52.50
71563;DHT22;59391;52.504;13.438;2023-03-21T00:14:08;11.90;52.40
71563;DHT22;59391;52.504;13.438;2023-03-21T00:16:38;11.80;52.50
71563;DHT22;59391;52.504;13.438;2023-03-21T00:19:04;11.80;52.80
71563;DHT22;59391;52.504;13.438;2023-03-21T00:21:32;11.80;52.50
71563;DHT22;59391;52.504;13.438;2023-03-21T00:24:03;11.80;52.80
71563;DHT22;59391;52.504;13.438;2023-03-21T00:26:31;11.70;52.90
71563;DHT22;59391;52.504;13.438;2023-03-21T00:28:57;11.70;52.90
71563;DHT22;59391;52.504;13.438;2023-03-21T00:31:23;11.70;53.00
71563;DHT22;59391;52.504;13.438;2023-03-21T00:33:49;11.70;53.10
71563;DHT22;59391;52.504;13.438;2023-03-21T00:36:14;11.70;53.20
71563;DHT22;59391;52.504;13.438;2023-03-21T00:38:40;11.70;53.30
71563;DHT22;59391;52.504;13.438;2023-03-21T00:41:08;11.70;53.10
71563;DHT22;59391;52.504;13.438;2023-03-21T00:43:35;11.70;53.40
71563;DHT22;59391;52.504;13.438;2023-03-21T00:46:01;11.70;53.40
71563;DHT22;59391;52.504;13.438;2023-03-21T00:48:28;11.70;53.40
71563;DHT22;59391;52.504;13.438;2023-03-21T00:50:55;11.70;53.30
71563;DHT22;59391;52.504;13.438;2023-03-21T00:53:23;11.70;53.30
71563;DHT22;59391;52.504;13.438;2023-03-21T00:55:49;11.70;53.30
71563;DHT22;59391;52.504;13.438;2023-03-21T00:58:15;11.70;53.20
71563;DHT22;59391;52.504;13.438;2023-03-21T01:00:42;11.70;53.10
71563;DHT22;59391;52.504;13.438;2023-03-21T01:03:10;11.70;53.30
71563;DHT22;59391;52.504;13.438;2023-03-21T01:05:41;11.70;53.40
71563;DHT22;59391;52.504;13.438;2023-03-21T01:08:27;11.70;53.70
71563;DHT22;59391;52.504;13.438;2023-03-21T01:10:54;11.70;53.80
71563;DHT22;59391;52.504;13.438;2023-03-21T01:13:22;11.70;53.80
71563;DHT22;59391;52.504;13.438;2023-03-21T01:15:52;11.70;54.00
71563;DHT22;59391;52.504;13.438;2023-03-21T01:18:22;11.70;53.70
71563;DHT22;59391;52.504;13.438;2023-03-21T01:20:51;11.70;53.80
71563;DHT22;59391;52.504;13.438;2023-03-21T01:23:18;11.70;54.00
71563;DHT22;59391;52.504;13.438;2023-03-21T01:25:43;11.70;54.20
71563;DHT22;59391;52.504;13.438;2023-03-21T01:28:12;11.70;54.20
71563;DHT22;59391;52.504;13.438;2023-03-21T01:30:38;11.60;54.30
71563;DHT22;59391;52.504;13.438;2023-03-21T01:33:04;11.60;54.30
71563;DHT22;59391;52.504;13.438;2023-03-21T01:35:29;11.60;54.60
71563;DHT22;59391;52.504;13.438;2023-03-21T01:37:55;11.60;54.50
71563;DHT22;59391;52.504;13.438;2023-03-21T01:40:24;11.60;54.70
71563;DHT22;59391;52.504;13.438;2023-03-21T01:42:51;11.60;54.50
71563;DHT22;59391;52.504;13.438;2023-03-21T01:48:33;11.50;54.70
71563;DHT22;59391;52.504;13.438;2023-03-21T01:51:03;11.50;54.60
71563;DHT22;59391;52.504;13.438;2023-03-21T01:53:32;11.50;54.70
71563;DHT22;59391;52.504;13.438;2023-03-21T01:56:05;11.50;54.80
71563;DHT22;59391;52.504;13.438;2023-03-21T01:58:37;11.40;54.90
71563;DHT22;59391;52.504;13.438;2023-03-21T02:01:06;11.40;55.20
71563;DHT22;59391;52.504;13.438;2023-03-21T02:03:33;11.40;55.00
71563;DHT22;59391;52.504;13.438;2023-03-21T02:06:26;11.40;55.20
71563;DHT22;59391;52.504;13.438;2023-03-21T02:09:03;11.40;55.20
71563;DHT22;59391;52.504;13.438;2023-03-21T02:11:34;11.40;55.40
71563;DHT22;59391;52.504;13.438;2023-03-21T02:14:01;11.30;55.40
71563;DHT22;59391;52.504;13.438;2023-03-21T02:19:39;11.30;55.90
71563;DHT22;59391;52.504;13.438;2023-03-21T02:22:52;11.30;55.90
71563;DHT22;59391;52.504;13.438;2023-03-21T02:26:23;11.30;56.00
71563;DHT22;59391;52.504;13.438;2023-03-21T02:38:32;11.20;56.60
71563;DHT22;59391;52.504;13.438;2023-03-21T02:41:18;11.20;56.60
71563;DHT22;59391;52.504;13.438;2023-03-21T02:47:08;11.20;57.00
71563;DHT22;59391;52.504;13.438;2023-03-21T02:50:08;11.10;57.20
71563;DHT22;59391;52.504;13.438;2023-03-21T02:52:38;11.10;57.30
71563;DHT22;59391;52.504;13.438;2023-03-21T02:55:21;11.10;57.20
71563;DHT22;59391;52.504;13.438;2023-03-21T02:57:50;11.10;57.60
71563;DHT22;59391;52.504;13.438;2023-03-21T03:00:20;11.00;57.50
71563;DHT22;59391;52.504;13.438;2023-03-21T03:02:48;11.00;57.60
71563;DHT22;59391;52.504;13.438;2023-03-21T03:05:20;11.00;57.70
71563;DHT22;59391;52.504;13.438;2023-03-21T03:08:24;11.00;57.70
71563;DHT22;59391;52.504;13.438;2023-03-21T03:11:19;11.00;57.90
71563;DHT22;59391;52.504;13.438;2023-03-21T03:19:54;10.90;58.40
71563;DHT22;59391;52.504;13.438;2023-03-21T03:22:38;10.90;58.70
71563;DHT22;59391;52.504;13.438;2023-03-21T03:25:13;10.90;59.00
71563;DHT22;59391;52.504;13.438;2023-03-21T03:27:46;10.90;59.40
71563;DHT22;59391;52.504;13.438;2023-03-21T03:30:15;10.80;59.40
71563;DHT22;59391;52.504;13.438;2023-03-21T03:32:51;10.80;59.60
71563;DHT22;59391;52.504;13.438;2023-03-21T03:35:21;10.80;59.70
71563;DHT22;59391;52.504;13.438;2023-03-21T03:37:52;10.80;60.00
71563;DHT22;59391;52.504;13.438;2023-03-21T03:40:35;10.70;60.30
71563;DHT22;59391;52.504;13.438;2023-03-21T03:43:10;10.80;60.30
71563;DHT22;59391;52.504;13.438;2023-03-21T03:45:53;10.70;60.50
71563;DHT22;59391;52.504;13.438;2023-03-21T03:48:36;10.70;60.60
71563;DHT22;59391;52.504;13.438;2023-03-21T03:51:16;10.70;61.00
71563;DHT22;59391;52.504;13.438;2023-03-21T03:54:13;10.70;61.10
71563;DHT22;59391;52.504;13.438;2023-03-21T03:56:44;10.70;61.40
71563;DHT22;59391;52.504;13.438;2023-03-21T03:59:11;10.60;61.80
71563;DHT22;59391;52.504;13.438;2023-03-21T04:01:36;10.60;61.90
71563;DHT22;59391;52.504;13.438;2023-03-21T04:04:02;10.60;62.20
71563;DHT22;59391;52.504;13.438;2023-03-21T04:06:28;10.60;62.30
71563;DHT22;59391;52.504;13.438;2023-03-21T04:08:55;10.60;62.50
71563;DHT22;59391;52.504;13.438;2023-03-21T04:11:21;10.60;62.40
71563;DHT22;59391;52.504;13.438;2023-03-21T04:13:47;10.60;62.40
71563;DHT22;59391;52.504;13.438;2023-03-21T04:16:13;10.50;62.50
71563;DHT22;59391;52.504;13.438;2023-03-21T04:18:39;10.60;62.50
71563;DHT22;59391;52.504;13.438;2023-03-21T04:21:07;10.50;62.40
71563;DHT22;59391;52.504;13.438;2023-03-21T04:23:34;10.50;62.70
71563;DHT22;59391;52.504;13.438;2023-03-21T04:26:01;10.50;62.70
71563;DHT22;59391;52.504;13.438;2023-03-21T04:28:28;10.50;62.50
71563;DHT22;59391;52.504;13.438;2023-03-21T04:30:53;10.50;62.40
71563;DHT22;59391;52.504;13.438;2023-03-21T04:33:22;10.50;62.50
71563;DHT22;59391;52.504;13.438;2023-03-21T04:35:50;10.50;62.60
71563;DHT22;59391;52.504;13.438;2023-03-21T04:38:21;10.50;62.60
71563;DHT22;59391;52.504;13.438;2023-03-21T04:40:48;10.50;62.60
71563;DHT22;59391;52.504;13.438;2023-03-21T04:43:14;10.50;62.70
71563;DHT22;59391;52.504;13.438;2023-03-21T04:45:39;10.50;62.80
71563;DHT22;59391;52.504;13.438;2023-03-21T04:48:05;10.50;62.90
71563;DHT22;59391;52.504;13.438;2023-03-21T04:50:31;10.50;63.10
71563;DHT22;59391;52.504;13.438;2023-03-21T04:52:57;10.50;63.10
71563;DHT22;59391;52.504;13.438;2023-03-21T04:55:22;10.50;63.10
71563;DHT22;59391;52.504;13.438;2023-03-21T04:57:50;10.50;63.20
71563;DHT22;59391;52.504;13.438;2023-03-21T05:00:16;10.50;63.20
71563;DHT22;59391;52.504;13.438;2023-03-21T05:02:42;10.50;63.10
71563;DHT22;59391;52.504;13.438;2023-03-21T05:05:08;10.50;63.10
71563;DHT22;59391;52.504;13.438;2023-03-21T05:07:40;10.50;63.10
71563;DHT22;59391;52.504;13.438;2023-03-21T05:10:09;10.50;62.90
71563;DHT22;59391;52.504;13.438;2023-03-21T05:12:36;10.50;63.10
71563;DHT22;59391;52.504;13.438;2023-03-21T05:15:02;10.60;62.90
71563;DHT22;59391;52.504;13.438;2023-03-21T05:17:28;10.50;63.10
71563;DHT22;59391;52.504;13.438;2023-03-21T05:19:55;10.60;63.20
71563;DHT22;59391;52.504;13.438;2023-03-21T05:22:21;10.60;63.20
71563;DHT22;59391;52.504;13.438;2023-03-21T05:24:49;10.60;63.30
71563;DHT22;59391;52.504;13.438;2023-03-21T05:27:16;10.60;63.50
71563;DHT22;59391;52.504;13.438;2023-03-21T05:29:59;10.60;64.00
71563;DHT22;59391;52.504;13.438;2023-03-21T05:32:26;10.60;64.50
71563;DHT22;59391;52.504;13.438;2023-03-21T05:34:52;10.60;64.20
71563;DHT22;59391;52.504;13.438;2023-03-21T05:37:17;10.50;64.60
71563;DHT22;59391;52.504;13.438;2023-03-21T05:39:43;10.50;64.70
71563;DHT22;59391;52.504;13.438;2023-03-21T05:42:08;10.50;64.70
71563;DHT22;59391;52.504;13.438;2023-03-21T05:44:34;10.50;65.00
71563;DHT22;59391;52.504;13.438;2023-03-21T05:47:00;10.40;65.10
71563;DHT22;59391;52.504;13.438;2023-03-21T05:49:26;10.40;65.30
71563;DHT22;59391;52.504;13.438;2023-03-21T05:51:51;10.40;65.20
71563;DHT22;59391;52.504;13.438;2023-03-21T05:54:17;10.40;65.30
71563;DHT22;59391;52.504;13.438;2023-03-21T05:56:43;10.50;65.50
71563;DHT22;59391;52.504;13.438;2023-03-21T05:59:08;10.50;65.60
71563;DHT22;59391;52.504;13.438;2023-03-21T06:01:34;10.50;65.60
71563;DHT22;59391;52.504;13.438;2023-03-21T06:03:59;10.50;65.90
71563;DHT22;59391;52.504;13.438;2023-03-21T06:06:25;10.50;65.80
71563;DHT22;59391;52.504;13.438;2023-03-21T06:08:51;10.50;65.90
71563;DHT22;59391;52.504;13.438;2023-03-21T06:11:25;10.50;65.90
71563;DHT22;59391;52.504;13.438;2023-03-21T06:13:52;10.50;66.10
71563;DHT22;59391;52.504;13.438;2023-03-21T06:16:18;10.50;66.20
71563;DHT22;59391;52.504;13.438;2023-03-21T06:18:44;10.50;66.30
71563;DHT22;59391;52.504;13.438;2023-03-21T06:21:09;10.50;66.10
71563;DHT22;59391;52.504;13.438;2023-03-21T06:23:35;10.50;66.00
71563;DHT22;59391;52.504;13.438;2023-03-21T06:26:02;10.50;66.00
71563;DHT22;59391;52.504;13.438;2023-03-21T06:28:28;10.50;66.10
71563;DHT22;59391;52.504;13.438;2023-03-21T06:30:54;10.50;66.30
71563;DHT22;59391;52.504;13.438;2023-03-21T06:33:19;10.50;66.30
71563;DHT22;59391;52.504;13.438;2023-03-21T06:35:50;10.50;66.50
71563;DHT22;59391;52.504;13.438;2023-03-21T06:38:19;10.50;66.30
71563;DHT22;59391;52.504;13.438;2023-03-21T06:40:46;10.60;66.20
71563;DHT22;59391;52.504;13.438;2023-03-21T06:43:13;10.60;66.10
71563;DHT22;59391;52.504;13.438;2023-03-21T06:45:40;10.60;66.00
71563;DHT22;59391;52.504;13.438;2023-03-21T06:48:06;10.60;66.00
71563;DHT22;59391;52.504;13.438;2023-03-21T06:50:32;10.60;66.10
71563;DHT22;59391;52.504;13.438;2023-03-21T06:52:58;10.60;66.00
71563;DHT22;59391;52.504;13.438;2023-03-21T06:55:24;10.50;66.30
71563;DHT22;59391;52.504;13.438;2023-03-21T06:57:52;10.50;66.40
71563;DHT22;59391;52.504;13.438;2023-03-21T07:00:18;10.50;66.70
71563;DHT22;59391;52.504;13.438;2023-03-21T07:02:45;10.40;66.90
71563;DHT22;59391;52.504;13.438;2023-03-21T07:05:12;10.40;67.10
71563;DHT22;59391;52.504;13.438;2023-03-21T07:07:38;10.40;67.20
71563;DHT22;59391;52.504;13.438;2023-03-21T07:10:05;10.50;67.40
71563;DHT22;59391;52.504;13.438;2023-03-21T07:12:31;10.50;67.40
71563;DHT22;59391;52.504;13.438;2023-03-21T07:14:59;10.50;67.70
71563;DHT22;59391;52.504;13.438;2023-03-21T07:17:25;10.50;68.00
71563;DHT22;59391;52.504;13.438;2023-03-21T07:19:51;10.40;68.40
71563;DHT22;59391;52.504;13.438;2023-03-21T07:22:16;10.40;68.70
71563;DHT22;59391;52.504;13.438;2023-03-21T07:24:42;10.40;69.20
71563;DHT22;59391;52.504;13.438;2023-03-21T07:27:08;10.40;69.60
71563;DHT22;59391;52.504;13.438;2023-03-21T07:29:34;10.40;69.80
71563;DHT22;59391;52.504;13.438;2023-03-21T07:32:00;10.30;70.30
71563;DHT22;59391;52.504;13.438;2023-03-21T07:34:26;10.30;70.50
71563;DHT22;59391;52.504;13.438;2023-03-21T07:36:55;10.40;70.50
71563;DHT22;59391;52.504;13.438;2023-03-21T07:39:21;10.30;70.70
71563;DHT22;59391;52.504;13.438;2023-03-21T07:41:47;10.30;70.80
71563;DHT22;59391;52.504;13.438;2023-03-21T07:44:13;10.30;71.20
71563;DHT22;59391;52.504;13.438;2023-03-21T07:46:39;10.30;71.00
71563;DHT22;59391;52.504;13.438;2023-03-21T07:49:05;10.20;71.60
71563;DHT22;59391;52.504;13.438;2023-03-21T07:51:33;10.20;71.70
71563;DHT22;59391;52.504;13.438;2023-03-21T07:54:00;10.20;71.90
71563;DHT22;59391;52.504;13.438;2023-03-21T07:56:26;10.20;72.30
71563;DHT22;59391;52.504;13.438;2023-03-21T07:58:52;10.10;72.30
71563;DHT22;59391;52.504;13.438;2023-03-21T08:01:18;10.10;72.80
71563;DHT22;59391;52.504;13.438;2023-03-21T08:03:46;10.10;72.60
71563;DHT22;59391;52.504;13.438;2023-03-21T08:06:12;10.10;72.80
71563;DHT22;59391;52.504;13.438;2023-03-21T08:08:39;10.10;72.80
71563;DHT22;59391;52.504;13.438;2023-03-21T08:11:05;10.10;73.30
71563;DHT22;59391;52.504;13.438;2023-03-21T08:13:32;10.20;73.10
71563;DHT22;59391;52.504;13.438;2023-03-21T08:15:58;10.20;73.10
71563;DHT22;59391;52.504;13.438;2023-03-21T08:18:23;10.20;72.60
71563;DHT22;59391;52.504;13.438;2023-03-21T08:20:54;10.20;72.90
71563;DHT22;59391;52.504;13.438;2023-03-21T08:23:21;10.30;73.00
71563;DHT22;59391;52.504;13.438;2023-03-21T08:25:52;10.30;73.50
71563;DHT22;59391;52.504;13.438;2023-03-21T08:28:18;10.40;73.10
71563;DHT22;59391;52.504;13.438;2023-03-21T08:30:45;10.40;72.80
71563;DHT22;59391;52.504;13.438;2023-03-21T08:33:11;10.50;72.90
71563;DHT22;59391;52.504;13.438;2023-03-21T08:35:38;10.50;72.60
71563;DHT22;59391;52.504;13.438;2023-03-21T08:38:05;10.50;72.70
71563;DHT22;59391;52.504;13.438;2023-03-21T08:40:32;10.50;73.10
71563;DHT22;59391;52.504;13.438;2023-03-21T08:42:58;10.60;73.50
71563;DHT22;59391;52.504;13.438;2023-03-21T08:45:24;10.60;73.30
71563;DHT22;59391;52.504;13.438;2023-03-21T08:47:52;10.60;73.70
71563;DHT22;59391;52.504;13.438;2023-03-21T08:50:20;10.70;73.40
71563;DHT22;59391;52.504;13.438;2023-03-21T08:52:48;10.70;73.50
71563;DHT22;59391;52.504;13.438;2023-03-21T08:55:15;10.70;73.80
71563;DHT22;59391;52.504;13.438;2023-03-21T08:57:42;10.70;74.00
71563;DHT22;59391;52.504;13.438;2023-03-21T09:00:11;10.80;74.10
71563;DHT22;59391;52.504;13.438;2023-03-21T09:02:39;10.80;74.00
71563;DHT22;59391;52.504;13.438;2023-03-21T09:05:06;10.80;74.10
71563;DHT22;59391;52.504;13.438;2023-03-21T09:07:33;10.90;74.00
71563;DHT22;59391;52.504;13.438;2023-03-21T09:10:02;10.90;73.50
71563;DHT22;59391;52.504;13.438;2023-03-21T09:12:28;10.90;73.30
71563;DHT22;59391;52.504;13.438;2023-03-21T09:14:54;10.90;73.30
71563;DHT22;59391;52.504;13.438;2023-03-21T09:17:20;10.90;73.70
71563;DHT22;59391;52.504;13.438;2023-03-21T09:19:45;10.90;74.40
71563;DHT22;59391;52.504;13.438;2023-03-21T09:22:12;10.90;74.10
71563;DHT22;59391;52.504;13.438;2023-03-21T09:24:46;10.90;73.70
71563;DHT22;59391;52.504;13.438;2023-03-21T09:27:14;10.90;73.50
71563;DHT22;59391;52.504;13.438;2023-03-21T09:29:41;10.90;73.70
71563;DHT22;59391;52.504;13.438;2023-03-21T09:32:09;10.90;73.80
71563;DHT22;59391;52.504;13.438;2023-03-21T09:34:37;10.90;74.10
71563;DHT22;59391;52.504;13.438;2023-03-21T09:37:06;11.00;73.80
71563;DHT22;59391;52.504;13.438;2023-03-21T09:39:35;11.00;74.10
71563;DHT22;59391;52.504;13.438;2023-03-21T09:42:12;11.10;74.10
71563;DHT22;59391;52.504;13.438;2023-03-21T09:45:15;11.00;74.40
71563;DHT22;59391;52.504;13.438;2023-03-21T09:47:47;11.10;75.00
71563;DHT22;59391;52.504;13.438;2023-03-21T09:50:22;11.10;74.40
71563;DHT22;59391;52.504;13.438;2023-03-21T09:52:57;11.10;73.90
71563;DHT22;59391;52.504;13.438;2023-03-21T09:55:31;11.20;74.10
71563;DHT22;59391;52.504;13.438;2023-03-21T10:01:08;11.20;71.70
71563;DHT22;59391;52.504;13.438;2023-03-21T10:03:46;11.20;72.40
71563;DHT22;59391;52.504;13.438;2023-03-21T10:06:14;11.30;72.30
71563;DHT22;59391;52.504;13.438;2023-03-21T10:08:44;11.30;72.10
71563;DHT22;59391;52.504;13.438;2023-03-21T10:11:24;11.20;71.90
71563;DHT22;59391;52.504;13.438;2023-03-21T10:13:56;11.30;72.40
71563;DHT22;59391;52.504;13.438;2023-03-21T10:16:32;11.40;73.00
71563;DHT22;59391;52.504;13.438;2023-03-21T10:19:03;11.50;72.40
71563;DHT22;59391;52.504;13.438;2023-03-21T10:21:38;11.60;72.70
71563;DHT22;59391;52.504;13.438;2023-03-21T10:24:19;11.60;71.80
71563;DHT22;59391;52.504;13.438;2023-03-21T10:26:48;11.80;72.00
71563;DHT22;59391;52.504;13.438;2023-03-21T10:29:16;11.90;71.30
71563;DHT22;59391;52.504;13.438;2023-03-21T10:31:46;11.90;70.60
71563;DHT22;59391;52.504;13.438;2023-03-21T10:34:42;12.10;70.10
71563;DHT22;59391;52.504;13.438;2023-03-21T10:37:11;12.10;69.80
71563;DHT22;59391;52.504;13.438;2023-03-21T10:39:40;12.10;69.40
71563;DHT22;59391;52.504;13.438;2023-03-21T10:44:47;12.30;69.10
71563;DHT22;59391;52.504;13.438;2023-03-21T10:47:19;12.30;68.30
71563;DHT22;59391;52.504;13.438;2023-03-21T10:49:47;12.40;67.70
71563;DHT22;59391;52.504;13.438;2023-03-21T10:52:18;12.40;67.50
71563;DHT22;59391;52.504;13.438;2023-03-21T10:54:46;12.50;66.90
71563;DHT22;59391;52.504;13.438;2023-03-21T10:57:21;12.60;66.70
71563;DHT22;59391;52.504;13.438;2023-03-21T10:59:54;12.60;66.40
71563;DHT22;59391;52.504;13.438;2023-03-21T11:02:36;12.70;66.50
71563;DHT22;59391;52.504;13.438;2023-03-21T11:05:19;12.80;65.40
71563;DHT22;59391;52.504;13.438;2023-03-21T11:08:04;12.80;65.40
71563;DHT22;59391;52.504;13.438;2023-03-21T11:10:46;12.80;65.10
71563;DHT22;59391;52.504;13.438;2023-03-21T11:13:22;12.80;64.80
71563;DHT22;59391;52.504;13.438;2023-03-21T11:15:54;12.80;64.70
71563;DHT22;59391;52.504;13.438;2023-03-21T11:18:28;12.80;64.90
71563;DHT22;59391;52.504;13.438;2023-03-21T11:21:04;12.80;64.70
71563;DHT22;59391;52.504;13.438;2023-03-21T11:23:35;12.80;64.30
71563;DHT22;59391;52.504;13.438;2023-03-21T11:26:19;12.80;64.40
71563;DHT22;59391;52.504;13.438;2023-03-21T11:28:50;12.80;64.50
71563;DHT22;59391;52.504;13.438;2023-03-21T11:31:17;12.80;64.70
71563;DHT22;59391;52.504;13.438;2023-03-21T11:33:58;12.80;64.50
71563;DHT22;59391;52.504;13.438;2023-03-21T11:36:33;12.80;64.50
71563;DHT22;59391;52.504;13.438;2023-03-21T11:39:27;12.90;64.50
71563;DHT22;59391;52.504;13.438;2023-03-21T11:42:05;13.00;64.40
71563;DHT22;59391;52.504;13.438;2023-03-21T11:44:49;13.00;64.20
71563;DHT22;59391;52.504;13.438;2023-03-21T11:47:24;13.10;64.10
71563;DHT22;59391;52.504;13.438;2023-03-21T11:49:50;13.10;63.70
71563;DHT22;59391;52.504;13.438;2023-03-21T11:52:27;13.20;63.80
71563;DHT22;59391;52.504;13.438;2023-03-21T12:00:57;13.40;62.90
71563;DHT22;59391;52.504;13.438;2023-03-21T12:04:03;13.30;62.60
71563;DHT22;59391;52.504;13.438;2023-03-21T12:06:47;13.40;62.50
71563;DHT22;59391;52.504;13.438;2023-03-21T12:09:40;13.40;62.40
71563;DHT22;59391;52.504;13.438;2023-03-21T12:15:23;13.50;62.30
71563;DHT22;59391;52.504;13.438;2023-03-21T12:30:19;13.80;61.60
71563;DHT22;59391;52.504;13.438;2023-03-21T12:36:31;13.90;61.20
71563;DHT22;59391;52.504;13.438;2023-03-21T12:44:32;13.90;60.70
71563;DHT22;59391;52.504;13.438;2023-03-21T12:47:05;14.00;60.90
71563;DHT22;59391;52.504;13.438;2023-03-21T12:49:52;13.90;61.00
71563;DHT22;59391;52.504;13.438;2023-03-21T12:52:25;13.90;61.00
71563;DHT22;59391;52.504;13.438;2023-03-21T12:54:59;14.00;61.20
71563;DHT22;59391;52.504;13.438;2023-03-21T12:57:36;14.00;61.20
71563;DHT22;59391;52.504;13.438;2023-03-21T13:00:15;14.00;61.00
71563;DHT22;59391;52.504;13.438;2023-03-21T13:02:48;14.00;61.00
71563;DHT22;59391;52.504;13.438;2023-03-21T13:05:34;14.00;60.90
71563;DHT22;59391;52.504;13.438;2023-03-21T13:10:47;14.10;60.70
71563;DHT22;59391;52.504;13.438;2023-03-21T13:13:32;14.10;60.80
71563;DHT22;59391;52.504;13.438;2023-03-21T13:16:09;14.10;61.00
71563;DHT22;59391;52.504;13.438;2023-03-21T13:18:51;14.20;60.90
71563;DHT22;59391;52.504;13.438;2023-03-21T13:27:27;14.20;60.30
71563;DHT22;59391;52.504;13.438;2023-03-21T13:30:25;14.20;60.40
71563;DHT22;59391;52.504;13.438;2023-03-21T13:33:09;14.30;60.10
71563;DHT22;59391;52.504;13.438;2023-03-21T13:35:40;14.40;59.90
71563;DHT22;59391;52.504;13.438;2023-03-21T13:38:15;14.40;59.60
71563;DHT22;59391;52.504;13.438;2023-03-21T13:40:57;14.40;59.30
71563;DHT22;59391;52.504;13.438;2023-03-21T13:51:49;14.40;59.10
71563;DHT22;59391;52.504;13.438;2023-03-21T13:54:21;14.30;59.20
71563;DHT22;59391;52.504;13.438;2023-03-21T13:56:57;14.30;59.30
71563;DHT22;59391;52.504;13.438;2023-03-21T14:02:29;14.40;59.40
71563;DHT22;59391;52.504;13.438;2023-03-21T14:05:06;14.40;59.40
71563;DHT22;59391;52.504;13.438;2023-03-21T14:07:43;14.40;59.40
71563;DHT22;59391;52.504;13.438;2023-03-21T14:10:24;14.40;59.30
71563;DHT22;59391;52.504;13.438;2023-03-21T14:12:56;14.40;59.20
71563;DHT22;59391;52.504;13.438;2023-03-21T14:15:25;14.40;59.70
71563;DHT22;59391;52.504;13.438;2023-03-21T14:18:00;14.40;61.60
71563;DHT22;59391;52.504;13.438;2023-03-21T14:20:32;14.30;62.60
71563;DHT22;59391;52.504;13.438;2023-03-21T14:23:04;14.30;62.90
71563;DHT22;59391;52.504;13.438;2023-03-21T14:25:36;14.20;63.10
71563;DHT22;59391;52.504;13.438;2023-03-21T14:28:07;14.10;62.90
71563;DHT22;59391;52.504;13.438;2023-03-21T14:30:39;14.10;62.90
71563;DHT22;59391;52.504;13.438;2023-03-21T14:36:12;14.10;62.70
71563;DHT22;59391;52.504;13.438;2023-03-21T14:38:40;14.10;62.80
71563;DHT22;59391;52.504;13.438;2023-03-21T14:41:20;14.10;62.50
71563;DHT22;59391;52.504;13.438;2023-03-21T14:44:31;14.20;62.90
71563;DHT22;59391;52.504;13.438;2023-03-21T14:47:06;14.30;62.20
71563;DHT22;59391;52.504;13.438;2023-03-21T14:49:35;14.40;61.40
71563;DHT22;59391;52.504;13.438;2023-03-21T14:52:10;14.40;61.40
71563;DHT22;59391;52.504;13.438;2023-03-21T14:54:41;14.40;61.20
71563;DHT22;59391;52.504;13.438;2023-03-21T14:57:13;14.50;61.20
71563;DHT22;59391;52.504;13.438;2023-03-21T14:59:43;14.50;61.10
71563;DHT22;59391;52.504;13.438;2023-03-21T15:02:27;14.60;60.90
71563;DHT22;59391;52.504;13.438;2023-03-21T15:05:09;14.60;61.00
71563;DHT22;59391;52.504;13.438;2023-03-21T15:07:39;14.70;60.40
71563;DHT22;59391;52.504;13.438;2023-03-21T15:10:19;14.70;60.30
71563;DHT22;59391;52.504;13.438;2023-03-21T15:12:54;14.80;59.90
71563;DHT22;59391;52.504;13.438;2023-03-21T15:15:24;14.80;59.90
71563;DHT22;59391;52.504;13.438;2023-03-21T15:17:52;14.90;59.50
71563;DHT22;59391;52.504;13.438;2023-03-21T15:20:30;14.80;59.50
71563;DHT22;59391;52.504;13.438;2023-03-21T15:23:03;14.90;59.70
71563;DHT22;59391;52.504;13.438;2023-03-21T15:25:34;14.80;59.90
71563;DHT22;59391;52.504;13.438;2023-03-21T15:28:02;14.80;59.90
71563;DHT22;59391;52.504;13.438;2023-03-21T15:30:29;14.80;60.00
71563;DHT22;59391;52.504;13.438;2023-03-21T15:32:58;14.90;59.80
71563;DHT22;59391;52.504;13.438;2023-03-21T15:35:35;14.90;59.90
71563;DHT22;59391;52.504;13.438;2023-03-21T15:38:03;14.90;59.70
71563;DHT22;59391;52.504;13.438;2023-03-21T15:40:30;14.90;59.70
71563;DHT22;59391;52.504;13.438;2023-03-21T15:43:17;14.90;59.70
71563;DHT22;59391;52.504;13.438;2023-03-21T15:45:52;14.90;59.70
71563;DHT22;59391;52.504;13.438;2023-03-21T15:48:24;14.90;59.70
71563;DHT22;59391;52.504;13.438;2023-03-21T15:51:01;14.90;59.70
71563;DHT22;59391;52.504;13.438;2023-03-21T15:53:35;14.90;59.70
71563;DHT22;59391;52.504;13.438;2023-03-21T15:56:09;14.90;59.60
71563;DHT22;59391;52.504;13.438;2023-03-21T15:58:44;14.90;59.50
71563;DHT22;59391;52.504;13.438;2023-03-21T16:01:18;14.90;59.60
71563;DHT22;59391;52.504;13.438;2023-03-21T16:03:53;14.80;59.80
71563;DHT22;59391;52.504;13.438;2023-03-21T16:06:22;14.70;59.80
71563;DHT22;59391;52.504;13.438;2023-03-21T16:11:41;14.70;59.90
71563;DHT22;59391;52.504;13.438;2023-03-21T16:14:12;14.70;59.90
71563;DHT22;59391;52.504;13.438;2023-03-21T16:16:38;14.70;60.00
71563;DHT22;59391;52.504;13.438;2023-03-21T16:19:04;14.70;60.00
71563;DHT22;59391;52.504;13.438;2023-03-21T16:21:32;14.70;60.10
71563;DHT22;59391;52.504;13.438;2023-03-21T16:23:59;14.70;60.00
71563;DHT22;59391;52.504;13.438;2023-03-21T16:26:29;14.70;60.00
71563;DHT22;59391;52.504;13.438;2023-03-21T16:28:56;14.70;59.90
71563;DHT22;59391;52.504;13.438;2023-03-21T16:31:29;14.70;59.90
71563;DHT22;59391;52.504;13.438;2023-03-21T16:33:57;14.70;60.00
71563;DHT22;59391;52.504;13.438;2023-03-21T16:36:29;14.70;60.00
71563;DHT22;59391;52.504;13.438;2023-03-21T16:38:57;14.70;60.00
71563;DHT22;59391;52.504;13.438;2023-03-21T16:41:25;14.70;60.00
71563;DHT22;59391;52.504;13.438;2023-03-21T16:43:52;14.70;59.90
71563;DHT22;59391;52.504;13.438;2023-03-21T16:46:23;14.70;59.90
71563;DHT22;59391;52.504;13.438;2023-03-21T16:48:52;14.70;59.90
71563;DHT22;59391;52.504;13.438;2023-03-21T16:51:22;14.70;60.00
71563;DHT22;59391;52.504;13.438;2023-03-21T16:53:53;14.70;60.00
71563;DHT22;59391;52.504;13.438;2023-03-21T16:56:25;14.70;60.00
71563;DHT22;59391;52.504;13.438;2023-03-21T16:58:57;14.70;60.00
71563;DHT22;59391;52.504;13.438;2023-03-21T17:01:23;14.80;60.00
71563;DHT22;59391;52.504;13.438;2023-03-21T17:03:51;14.80;60.00
71563;DHT22;59391;52.504;13.438;2023-03-21T17:06:22;14.80;60.00
71563;DHT22;59391;52.504;13.438;2023-03-21T17:08:50;14.80;60.00